sensor_id;sensor_type;location;lat;lon;timestamp;P1;durP1;ratioP1;P2;durP2;ratioP2
75818;SDS011;64453;51.944;9.796;2022-10-17T20:00:16;6.23;;;4.40;;
75818;SDS011;64453;51.944;9.796;2022-10-17T20:02:43;4.90;;;3.67;;
75818;SDS011;64453;51.944;9.796;2022-10-17T20:05:09;6.23;;;3.80;;
75818;SDS011;64453;51.944;9.796;2022-10-17T20:07:37;4.57;;;3.80;;
75818;SDS011;64453;51.944;9.796;2022-10-17T20:10:04;3.60;;;3.30;;
75818;SDS011;64453;51.944;9.796;2022-10-17T20:12:33;7.50;;;4.07;;
75818;SDS011;64453;51.944;9.796;2022-10-17T20:15:00;6.83;;;4.10;;
75818;SDS011;64453;51.944;9.796;2022-10-17T20:17:27;7.50;;;4.93;;
75818;SDS011;64453;51.944;9.796;2022-10-17T20:19:54;4.03;;;3.70;;
75818;SDS011;64453;51.944;9.796;2022-10-17T20:22:21;6.00;;;4.27;;
75818;SDS011;64453;51.944;9.796;2022-10-17T20:24:50;4.60;;;4.30;;
75818;SDS011;64453;51.944;9.796;2022-10-17T20:27:16;5.87;;;5.23;;
75818;SDS011;64453;51.944;9.796;2022-10-17T20:29:45;6.20;;;4.20;;
75818;SDS011;64453;51.944;9.796;2022-10-17T20:32:11;5.20;;;4.70;;
75818;SDS011;64453;51.944;9.796;2022-10-17T20:34:38;5.53;;;3.90;;
75818;SDS011;64453;51.944;9.796;2022-10-17T20:37:05;4.50;;;4.20;;
75818;SDS011;64453;51.944;9.796;2022-10-17T20:39:32;5.33;;;4.83;;
75818;SDS011;64453;51.944;9.796;2022-10-17T20:41:58;8.43;;;5.47;;
75818;SDS011;64453;51.944;9.796;2022-10-17T20:44:25;4.90;;;4.47;;
75818;SDS011;64453;51.944;9.796;2022-10-17T20:46:53;6.77;;;5.43;;
75818;SDS011;64453;51.944;9.796;2022-10-17T20:49:21;6.90;;;4.80;;
75818;SDS011;64453;51.944;9.796;2022-10-17T20:51:47;7.37;;;4.97;;
75818;SDS011;64453;51.944;9.796;2022-10-17T20:54:14;6.70;;;5.03;;
75818;SDS011;64453;51.944;9.796;2022-10-17T20:56:41;6.90;;;6.20;;
75818;SDS011;64453;51.944;9.796;2022-10-17T20:59:09;11.57;;;5.93;;
75818;SDS011;64453;51.944;9.796;2022-10-17T21:01:38;6.77;;;6.07;;
75818;SDS011;64453;51.944;9.796;2022-10-17T21:04:08;8.37;;;6.23;;
75818;SDS011;64453;51.944;9.796;2022-10-17T21:06:35;6.57;;;5.87;;
75818;SDS011;64453;51.944;9.796;2022-10-17T21:09:03;7.27;;;6.17;;
75818;SDS011;64453;51.944;9.796;2022-10-17T21:11:30;8.07;;;5.73;;
75818;SDS011;64453;51.944;9.796;2022-10-17T21:13:58;6.40;;;5.97;;
75818;SDS011;64453;51.944;9.796;2022-10-17T21:16:27;6.67;;;6.07;;
75818;SDS011;64453;51.944;9.796;2022-10-17T21:18:55;7.03;;;6.33;;
75818;SDS011;64453;51.944;9.796;2022-10-17T21:21:24;9.53;;;5.63;;
75818;SDS011;64453;51.944;9.796;2022-10-17T21:23:52;5.70;;;5.30;;
75818;SDS011;64453;51.944;9.796;2022-10-17T21:26:20;6.00;;;5.50;;
75818;SDS011;64453;51.944;9.796;2022-10-17T21:28:48;12.30;;;6.47;;
75818;SDS011;64453;51.944;9.796;2022-10-17T21:31:16;7.30;;;5.87;;
75818;SDS011;64453;51.944;9.796;2022-10-17T21:33:45;6.60;;;6.10;;
75818;SDS011;64453;51.944;9.796;2022-10-17T21:36:13;6.67;;;6.17;;
75818;SDS011;64453;51.944;9.796;2022-10-17T21:38:42;5.73;;;5.23;;
75818;SDS011;64453;51.944;9.796;2022-10-17T21:41:10;6.80;;;6.20;;
75818;SDS011;64453;51.944;9.796;2022-10-17T21:43:38;6.50;;;5.90;;
75818;SDS011;64453;51.944;9.796;2022-10-17T21:46:06;6.90;;;6.40;;
75818;SDS011;64453;51.944;9.796;2022-10-17T21:48:43;8.10;;;7.40;;
75818;SDS011;64453;51.944;9.796;2022-10-17T21:51:11;7.30;;;6.70;;
75818;SDS011;64453;51.944;9.796;2022-10-17T21:53:39;9.00;;;8.20;;
75818;SDS011;64453;51.944;9.796;2022-10-17T21:56:08;10.50;;;8.30;;
75818;SDS011;64453;51.944;9.796;2022-10-17T21:58:36;11.20;;;8.10;;
75818;SDS011;64453;51.944;9.796;2022-10-17T22:01:03;7.70;;;6.93;;
75818;SDS011;64453;51.944;9.796;2022-10-17T22:03:32;7.17;;;6.53;;
75818;SDS011;64453;51.944;9.796;2022-10-17T22:05:59;8.33;;;7.47;;
75818;SDS011;64453;51.944;9.796;2022-10-17T22:08:26;9.77;;;7.77;;
75818;SDS011;64453;51.944;9.796;2022-10-17T22:10:54;19.60;;;7.20;;
75818;SDS011;64453;51.944;9.796;2022-10-17T22:13:22;7.33;;;6.70;;
75818;SDS011;64453;51.944;9.796;2022-10-17T22:15:49;7.20;;;6.57;;
75818;SDS011;64453;51.944;9.796;2022-10-17T22:18:16;8.03;;;7.33;;
75818;SDS011;64453;51.944;9.796;2022-10-17T22:20:42;8.90;;;7.97;;
75818;SDS011;64453;51.944;9.796;2022-10-17T22:23:10;8.60;;;7.30;;
75818;SDS011;64453;51.944;9.796;2022-10-17T22:25:36;7.67;;;7.07;;
75818;SDS011;64453;51.944;9.796;2022-10-17T22:28:03;8.83;;;7.17;;
75818;SDS011;64453;51.944;9.796;2022-10-17T22:30:31;8.63;;;7.57;;
75818;SDS011;64453;51.944;9.796;2022-10-17T22:32:58;8.10;;;7.30;;
75818;SDS011;64453;51.944;9.796;2022-10-17T22:35:25;8.13;;;7.53;;
75818;SDS011;64453;51.944;9.796;2022-10-17T22:37:51;8.53;;;7.73;;
75818;SDS011;64453;51.944;9.796;2022-10-17T22:40:18;10.63;;;8.73;;
75818;SDS011;64453;51.944;9.796;2022-10-17T22:42:45;9.20;;;8.43;;
75818;SDS011;64453;51.944;9.796;2022-10-17T22:45:12;13.80;;;8.17;;
75818;SDS011;64453;51.944;9.796;2022-10-17T22:47:42;9.50;;;8.67;;
75818;SDS011;64453;51.944;9.796;2022-10-17T22:50:09;8.77;;;8.07;;
75818;SDS011;64453;51.944;9.796;2022-10-17T22:52:36;8.50;;;7.80;;
75818;SDS011;64453;51.944;9.796;2022-10-17T22:55:03;10.17;;;8.60;;
75818;SDS011;64453;51.944;9.796;2022-10-17T22:57:30;10.80;;;9.10;;
75818;SDS011;64453;51.944;9.796;2022-10-17T22:59:56;9.50;;;8.60;;
75818;SDS011;64453;51.944;9.796;2022-10-17T23:02:23;8.90;;;8.10;;
75818;SDS011;64453;51.944;9.796;2022-10-17T23:04:51;9.73;;;8.40;;
75818;SDS011;64453;51.944;9.796;2022-10-17T23:07:18;9.50;;;8.70;;
75818;SDS011;64453;51.944;9.796;2022-10-17T23:09:45;10.40;;;9.13;;
75818;SDS011;64453;51.944;9.796;2022-10-17T23:12:11;9.90;;;8.90;;
75818;SDS011;64453;51.944;9.796;2022-10-17T23:14:38;9.20;;;8.40;;
75818;SDS011;64453;51.944;9.796;2022-10-17T23:17:08;10.80;;;9.77;;
75818;SDS011;64453;51.944;9.796;2022-10-17T23:19:35;22.13;;;10.27;;
75818;SDS011;64453;51.944;9.796;2022-10-17T23:22:03;11.47;;;10.23;;
75818;SDS011;64453;51.944;9.796;2022-10-17T23:24:31;11.77;;;10.57;;
75818;SDS011;64453;51.944;9.796;2022-10-17T23:26:59;11.33;;;10.30;;
75818;SDS011;64453;51.944;9.796;2022-10-17T23:29:29;9.47;;;8.67;;
75818;SDS011;64453;51.944;9.796;2022-10-17T23:31:57;11.30;;;10.10;;
75818;SDS011;64453;51.944;9.796;2022-10-17T23:34:24;11.50;;;10.07;;
75818;SDS011;64453;51.944;9.796;2022-10-17T23:36:53;11.80;;;10.60;;
75818;SDS011;64453;51.944;9.796;2022-10-17T23:39:21;11.10;;;10.10;;
75818;SDS011;64453;51.944;9.796;2022-10-17T23:41:48;11.53;;;10.43;;
75818;SDS011;64453;51.944;9.796;2022-10-17T23:44:15;12.10;;;10.90;;
75818;SDS011;64453;51.944;9.796;2022-10-17T23:46:43;11.93;;;10.73;;
75818;SDS011;64453;51.944;9.796;2022-10-17T23:49:10;11.60;;;10.60;;
75818;SDS011;64453;51.944;9.796;2022-10-17T23:51:37;12.70;;;11.50;;
75818;SDS011;64453;51.944;9.796;2022-10-17T23:54:03;11.20;;;10.10;;
75818;SDS011;64453;51.944;9.796;2022-10-17T23:56:31;13.93;;;10.77;;
75818;SDS011;64453;51.944;9.796;2022-10-17T23:58:58;11.50;;;10.30;;
